sensor_id;sensor_type;location;lat;lon;timestamp;pressure;altitude;pressure_sealevel;temperature;humidity
68199;BME280;55021;51.554;17.044;2023-02-11T00:05:08;102150.91;;;2.27;72.01
68199;BME280;55021;51.554;17.044;2023-02-11T00:20:10;102127.97;;;2.66;69.98
68199;BME280;55021;51.554;17.044;2023-02-11T00:35:12;102095.66;;;2.93;69.56
68199;BME280;55021;51.554;17.044;2023-02-11T00:50:15;102074.59;;;2.43;70.59
68199;BME280;55021;51.554;17.044;2023-02-11T01:05:18;102032.72;;;3.06;68.47
68199;BME280;55021;51.554;17.044;2023-02-11T01:20:23;102009.47;;;2.67;69.66
68199;BME280;55021;51.554;17.044;2023-02-11T01:35:26;101990.34;;;2.77;69.18
68199;BME280;55021;51.554;17.044;2023-02-11T01:50:29;101979.47;;;2.61;69.55
68199;BME280;55021;51.554;17.044;2023-02-11T02:05:37;101943.94;;;2.98;68.32
68199;BME280;55021;51.554;17.044;2023-02-11T02:21:09;101913.59;;;2.80;68.47
68199;BME280;55021;51.554;17.044;2023-02-11T02:36:21;101874.28;;;2.43;70.13
68199;BME280;55021;51.554;17.044;2023-02-11T02:51:44;101909.53;;;2.72;68.81
68199;BME280;55021;51.554;17.044;2023-02-11T03:06:54;101912.72;;;2.80;68.76
68199;BME280;55021;51.554;17.044;2023-02-11T03:22:02;101882.31;;;2.82;68.63
68199;BME280;55021;51.554;17.044;2023-02-11T03:37:11;101874.53;;;2.57;69.66
68199;BME280;55021;51.554;17.044;2023-02-11T03:52:17;101841.84;;;2.71;69.27
68199;BME280;55021;51.554;17.044;2023-02-11T04:07:19;101821.06;;;2.78;69.68
68199;BME280;55021;51.554;17.044;2023-02-11T04:22:22;101799.09;;;2.90;69.44
68199;BME280;55021;51.554;17.044;2023-02-11T04:37:24;101771.72;;;3.03;69.12
68199;BME280;55021;51.554;17.044;2023-02-11T04:52:27;101751.09;;;2.88;69.84
68199;BME280;55021;51.554;17.044;2023-02-11T05:07:29;101708.41;;;2.87;70.03
68199;BME280;55021;51.554;17.044;2023-02-11T05:22:32;101703.59;;;3.29;69.61
68199;BME280;55021;51.554;17.044;2023-02-11T05:37:35;101728.84;;;3.23;72.40
68199;BME280;55021;51.554;17.044;2023-02-11T05:52:38;101722.13;;;3.15;74.75
68199;BME280;55021;51.554;17.044;2023-02-11T06:07:40;101693.59;;;3.15;76.39
68199;BME280;55021;51.554;17.044;2023-02-11T06:22:43;101669.22;;;3.21;76.58
68199;BME280;55021;51.554;17.044;2023-02-11T06:37:46;101661.50;;;3.15;75.79
68199;BME280;55021;51.554;17.044;2023-02-11T06:52:48;101669.38;;;3.18;76.59
68199;BME280;55021;51.554;17.044;2023-02-11T07:07:50;101673.06;;;3.67;75.81
68199;BME280;55021;51.554;17.044;2023-02-11T07:22:53;101682.28;;;3.45;76.82
68199;BME280;55021;51.554;17.044;2023-02-11T07:37:55;101681.50;;;3.43;78.14
68199;BME280;55021;51.554;17.044;2023-02-11T07:52:57;101682.09;;;3.30;81.30
68199;BME280;55021;51.554;17.044;2023-02-11T08:08:00;101680.38;;;3.64;82.02
68199;BME280;55021;51.554;17.044;2023-02-11T08:23:04;101673.88;;;3.52;83.98
68199;BME280;55021;51.554;17.044;2023-02-11T08:38:07;101657.63;;;3.72;83.80
68199;BME280;55021;51.554;17.044;2023-02-11T08:53:10;101618.63;;;3.84;83.81
68199;BME280;55021;51.554;17.044;2023-02-11T09:08:13;101621.00;;;3.90;83.58
68199;BME280;55021;51.554;17.044;2023-02-11T09:23:15;101610.28;;;4.06;83.03
68199;BME280;55021;51.554;17.044;2023-02-11T09:38:18;101594.34;;;4.20;82.55
68199;BME280;55021;51.554;17.044;2023-02-11T09:53:23;101574.44;;;4.24;82.87
68199;BME280;55021;51.554;17.044;2023-02-11T10:08:32;101580.72;;;4.54;81.71
68199;BME280;55021;51.554;17.044;2023-02-11T10:23:41;101582.69;;;4.82;81.18
68199;BME280;55021;51.554;17.044;2023-02-11T10:38:46;101597.50;;;5.03;80.76
68199;BME280;55021;51.554;17.044;2023-02-11T10:53:50;101577.25;;;4.97;81.44
68199;BME280;55021;51.554;17.044;2023-02-11T11:09:00;101579.28;;;5.38;80.31
68199;BME280;55021;51.554;17.044;2023-02-11T11:24:03;101556.56;;;5.29;81.95
68199;BME280;55021;51.554;17.044;2023-02-11T11:39:18;101533.41;;;5.56;82.53
68199;BME280;55021;51.554;17.044;2023-02-11T11:54:23;101499.56;;;5.68;82.75
68199;BME280;55021;51.554;17.044;2023-02-11T12:09:34;101461.59;;;6.01;80.07
68199;BME280;55021;51.554;17.044;2023-02-11T12:24:57;101427.31;;;6.18;78.79
68199;BME280;55021;51.554;17.044;2023-02-11T12:40:12;101464.06;;;6.45;77.64
68199;BME280;55021;51.554;17.044;2023-02-11T12:55:20;101456.56;;;6.62;76.67
68199;BME280;55021;51.554;17.044;2023-02-11T13:10:32;101445.25;;;6.57;76.74
68199;BME280;55021;51.554;17.044;2023-02-11T13:25:42;101453.66;;;6.53;76.88
68199;BME280;55021;51.554;17.044;2023-02-11T13:40:57;101461.47;;;6.56;76.59
68199;BME280;55021;51.554;17.044;2023-02-11T13:56:10;101519.78;;;6.55;77.28
68199;BME280;55021;51.554;17.044;2023-02-11T14:26:46;101552.69;;;6.04;82.01
68199;BME280;55021;51.554;17.044;2023-02-11T14:41:51;101553.69;;;5.75;86.00
68199;BME280;55021;51.554;17.044;2023-02-11T14:57:11;101552.63;;;5.63;87.43
68199;BME280;55021;51.554;17.044;2023-02-11T15:12:18;101554.38;;;5.50;88.32
68199;BME280;55021;51.554;17.044;2023-02-11T15:27:21;101567.03;;;5.48;88.14
68199;BME280;55021;51.554;17.044;2023-02-11T15:42:26;101576.44;;;5.41;88.53
68199;BME280;55021;51.554;17.044;2023-02-11T15:57:29;101561.47;;;5.37;88.56
68199;BME280;55021;51.554;17.044;2023-02-11T16:12:31;101590.22;;;5.63;87.83
68199;BME280;55021;51.554;17.044;2023-02-11T16:27:38;101597.91;;;5.69;87.00
68199;BME280;55021;51.554;17.044;2023-02-11T16:42:41;101621.09;;;5.56;87.81
68199;BME280;55021;51.554;17.044;2023-02-11T16:57:43;101647.69;;;5.75;87.99
68199;BME280;55021;51.554;17.044;2023-02-11T17:12:46;101649.28;;;5.63;87.69
68199;BME280;55021;51.554;17.044;2023-02-11T17:27:49;101690.75;;;6.01;87.06
68199;BME280;55021;51.554;17.044;2023-02-11T17:42:51;101678.25;;;5.72;87.56
68199;BME280;55021;51.554;17.044;2023-02-11T17:57:53;101726.19;;;6.08;86.86
68199;BME280;55021;51.554;17.044;2023-02-11T18:12:56;101731.88;;;6.32;85.87
68199;BME280;55021;51.554;17.044;2023-02-11T18:27:58;101741.56;;;5.90;88.32
68199;BME280;55021;51.554;17.044;2023-02-11T18:43:01;101768.63;;;6.17;87.26
68199;BME280;55021;51.554;17.044;2023-02-11T18:58:03;101773.25;;;6.29;87.36
68199;BME280;55021;51.554;17.044;2023-02-11T19:13:06;101786.50;;;6.32;86.87
68199;BME280;55021;51.554;17.044;2023-02-11T19:28:08;101796.00;;;6.52;86.57
68199;BME280;55021;51.554;17.044;2023-02-11T19:43:10;101792.38;;;6.53;86.44
68199;BME280;55021;51.554;17.044;2023-02-11T19:58:13;101825.56;;;6.38;87.24
68199;BME280;55021;51.554;17.044;2023-02-11T20:13:16;101840.47;;;6.57;86.21
68199;BME280;55021;51.554;17.044;2023-02-11T20:28:18;101836.09;;;6.26;86.37
68199;BME280;55021;51.554;17.044;2023-02-11T20:43:21;101854.13;;;6.68;84.57
68199;BME280;55021;51.554;17.044;2023-02-11T20:58:24;101867.41;;;6.85;84.22
68199;BME280;55021;51.554;17.044;2023-02-11T21:13:26;101923.16;;;6.68;86.08
68199;BME280;55021;51.554;17.044;2023-02-11T21:28:29;101941.13;;;6.67;86.00
68199;BME280;55021;51.554;17.044;2023-02-11T21:43:32;101925.88;;;6.38;86.01
68199;BME280;55021;51.554;17.044;2023-02-11T21:58:34;101965.47;;;6.50;86.59
68199;BME280;55021;51.554;17.044;2023-02-11T22:13:38;101992.38;;;6.35;87.36
68199;BME280;55021;51.554;17.044;2023-02-11T22:28:41;102013.50;;;6.86;85.22
68199;BME280;55021;51.554;17.044;2023-02-11T22:43:44;102029.97;;;6.96;85.68
68199;BME280;55021;51.554;17.044;2023-02-11T22:58:47;102064.28;;;7.06;84.60
68199;BME280;55021;51.554;17.044;2023-02-11T23:13:50;102062.88;;;6.55;86.60
68199;BME280;55021;51.554;17.044;2023-02-11T23:28:53;102064.44;;;6.89;85.08
68199;BME280;55021;51.554;17.044;2023-02-11T23:43:56;102068.50;;;6.96;84.56
68199;BME280;55021;51.554;17.044;2023-02-11T23:58:59;102082.63;;;6.54;86.22
